Jhelum Weather



Jhelum's Current Weather

Temprature 41.562o clear sky

clear sky

Rain: 0 %

Min Temprature41.562o
Max Temprature41.562o
Humidity14
Wind Speed4.05 m/h
Sun Rise04:58:12
Sun Set19:17:19
Current Time: 26-Jun-2019 15:22:23
Lat/Lon: 32.94, 73.72




Jhelum's Geo Location



Jhelum's Weather Forecast

Time Overall Temp Min Temp Max Temp Humidity Wind Speed Rain
26-Jun-2019 (Wed)
17:00:00 clear sky 41.550 41.550 41.550 14 4.37 m/h 0 %
20:00:00 few clouds 37.950 37.947 37.950 16 3.79 m/h 0 %
23:00:00 few clouds 35.240 35.240 35.240 15 2.21 m/h 0 %
27-Jun-2019 (Thu)
02:00:00 clear sky 32.380 32.379 32.380 21 1.76 m/h 0 %
05:00:00 clear sky 30.465 30.465 30.465 27 1.71 m/h 0 %
08:00:00 scattered clouds 34.550 34.550 34.550 20 1.63 m/h 0 %
11:00:00 broken clouds 40.174 40.174 40.174 12 2.45 m/h 0 %
14:00:00 overcast clouds 42.450 42.450 42.450 10 2.33 m/h 0 %
17:00:00 scattered clouds 43.180 43.180 43.180 9 3.31 m/h 0 %
20:00:00 scattered clouds 39.294 39.294 39.294 13 3.48 m/h 0 %
23:00:00 scattered clouds 36.335 36.335 36.335 17 2.82 m/h 0 %
28-Jun-2019 (Fri)
02:00:00 clear sky 34.128 34.128 34.128 22 1.91 m/h 0 %
05:00:00 clear sky 31.728 31.728 31.728 23 2.52 m/h 0 %
08:00:00 clear sky 35.729 35.729 35.729 18 1.18 m/h 0 %
11:00:00 scattered clouds 41.325 41.325 41.325 13 0.5 m/h 0 %
14:00:00 clear sky 44.231 44.231 44.231 9 1.29 m/h 0 %
17:00:00 clear sky 44.850 44.850 44.850 9 4.41 m/h 0 %
20:00:00 scattered clouds 38.950 38.950 38.950 17 0.32 m/h 0 %
23:00:00 few clouds 36.772 36.772 36.772 20 0.16 m/h 0 %
29-Jun-2019 (Sat)
02:00:00 clear sky 35.172 35.172 35.172 20 2.28 m/h 0 %
05:00:00 clear sky 32.859 32.859 32.859 21 2.28 m/h 0 %
08:00:00 clear sky 37.107 37.107 37.107 16 1.89 m/h 0 %
11:00:00 clear sky 42.150 42.150 42.150 13 1.42 m/h 0 %
14:00:00 clear sky 44.750 44.750 44.750 9 2.27 m/h 0 %
17:00:00 clear sky 45.291 45.291 45.291 8 1.35 m/h 0 %
20:00:00 few clouds 40.350 40.350 40.350 15 8.86 m/h 0 %
23:00:00 scattered clouds 38.250 38.250 38.250 18 2.03 m/h 0 %
30-Jun-2019 (Sun)
02:00:00 light rain 35.706 35.706 35.706 21 2.01 m/h 13 %
05:00:00 few clouds 33.932 33.932 33.932 22 1.25 m/h 0 %
08:00:00 scattered clouds 39.072 39.072 39.072 17 1.72 m/h 0 %
11:00:00 scattered clouds 43.518 43.518 43.518 13 0.27 m/h 0 %
14:00:00 clear sky 46.308 46.308 46.308 10 3.28 m/h 0 %
17:00:00 few clouds 46.450 46.450 46.450 10 4.42 m/h 0 %
20:00:00 light rain 39.450 39.450 39.450 18 1.89 m/h 38 %
23:00:00 light rain 37.050 37.050 37.050 22 1.97 m/h 6 %
01-Jul-2019 (Mon)
02:00:00 clear sky 34.850 34.850 34.850 25 0.38 m/h 0 %
05:00:00 clear sky 33.335 33.335 33.335 24 3.05 m/h 0 %
08:00:00 clear sky 38.050 38.050 38.050 20 3.18 m/h 0 %
11:00:00 clear sky 42.150 42.150 42.150 16 1.72 m/h 0 %
14:00:00 clear sky 45.750 45.750 45.750 12 3.02 m/h 0 %

Famous Cities (60)